map of HGA home
HGA - Airport
Location
City:  Hargeisa, Woqooyi Galbeed, Somalia
Name:Hargeisa International Airport
Old (Alt.):Egal International Airport
ICAO:HCMH
IATA:HGA

Details
Type:Airport (Aerodrome, Airfield)
Use:International (customs port of entry)
Latitude:931'05"N (9.518167)
Longitude:4405'20"E (44.088758)
Datum:WGS 1984
Elevation:4423 ft (1348 m)
Variation:1.45E (WMM2015v2 magnetic declination)
0.02 annual change
Runways:1
Longest:8000 × 148 ft (2438 × 45 m), paved

Time
Time Zone:UTC+3
Local Time:

Weather
METAR:HCMH 041300Z 06010KT CAVOK 26/13 Q1019

Related Locations
Nearby:
Farthest:AUQ: 12238 mi / 19695 km
Atuona, Marquesas Islands, PF

Find:

   beyond  
but within

Other Information
Maps:
NOTAMs:
Links:
Sources:

  
  • flag of Somalia
  

Sectional Chart

Flight Planning
at skyvector.com

Satellite Image

Google Maps Satellite view

 

Copyright © 2004-2019 Karl L. Swartz. All rights reserved.
The Great Circle Mapper name and logo are trademarks of the Great Circle Mapper.
All other trademarks mentioned herein belong to their respective owners.
Please see credits for attibutions and further copyright information.

  Follow gcmap on Facebook Follow gcmap on Twitter GCmap on LinkedIn

hCard Microformat

Geo Microformat